sensor_id;sensor_type;location;lat;lon;timestamp;pressure;altitude;pressure_sealevel;temperature;humidity
26978;BME280;56314;48.088;11.642;2022-12-01T00:02:21;95769.16;;;1.52;93.73
26978;BME280;56314;48.088;11.642;2022-12-01T00:04:47;95772.53;;;1.54;92.75
26978;BME280;56314;48.088;11.642;2022-12-01T00:07:13;95760.25;;;1.59;92.14
26978;BME280;56314;48.088;11.642;2022-12-01T00:09:38;95760.53;;;1.51;93.30
26978;BME280;56314;48.088;11.642;2022-12-01T00:12:22;95755.47;;;1.48;93.43
26978;BME280;56314;48.088;11.642;2022-12-01T00:14:47;95752.25;;;1.42;94.11
26978;BME280;56314;48.088;11.642;2022-12-01T00:17:19;95753.81;;;1.46;93.58
26978;BME280;56314;48.088;11.642;2022-12-01T00:19:44;95749.44;;;1.48;93.66
26978;BME280;56314;48.088;11.642;2022-12-01T00:22:10;95750.47;;;1.44;93.11
26978;BME280;56314;48.088;11.642;2022-12-01T00:24:35;95750.41;;;1.45;93.83
26978;BME280;56314;48.088;11.642;2022-12-01T00:27:00;95744.44;;;1.43;93.35
26978;BME280;56314;48.088;11.642;2022-12-01T00:29:26;95750.34;;;1.47;94.02
26978;BME280;56314;48.088;11.642;2022-12-01T00:31:51;95753.06;;;1.44;92.94
26978;BME280;56314;48.088;11.642;2022-12-01T00:34:21;95752.00;;;1.49;93.29
26978;BME280;56314;48.088;11.642;2022-12-01T00:36:47;95755.09;;;1.34;92.98
26978;BME280;56314;48.088;11.642;2022-12-01T00:39:12;95752.47;;;1.35;93.34
26978;BME280;56314;48.088;11.642;2022-12-01T00:41:38;95746.56;;;1.32;94.06
26978;BME280;56314;48.088;11.642;2022-12-01T00:44:03;95748.41;;;1.28;94.84
26978;BME280;56314;48.088;11.642;2022-12-01T00:46:29;95745.81;;;1.28;94.63
26978;BME280;56314;48.088;11.642;2022-12-01T00:48:54;95743.22;;;1.28;94.66
26978;BME280;56314;48.088;11.642;2022-12-01T00:51:19;95750.00;;;1.32;94.68
26978;BME280;56314;48.088;11.642;2022-12-01T00:53:45;95745.56;;;1.36;94.80
26978;BME280;56314;48.088;11.642;2022-12-01T00:56:10;95744.75;;;1.34;94.93
26978;BME280;56314;48.088;11.642;2022-12-01T00:58:35;95749.13;;;1.32;94.90
26978;BME280;56314;48.088;11.642;2022-12-01T01:01:01;95749.19;;;1.30;93.75
26978;BME280;56314;48.088;11.642;2022-12-01T01:03:28;95758.13;;;1.21;94.26
26978;BME280;56314;48.088;11.642;2022-12-01T01:05:54;95758.78;;;1.27;94.46
26978;BME280;56314;48.088;11.642;2022-12-01T01:08:19;95756.19;;;1.27;95.07
26978;BME280;56314;48.088;11.642;2022-12-01T01:10:46;95752.88;;;1.23;95.06
26978;BME280;56314;48.088;11.642;2022-12-01T01:13:13;95751.94;;;1.26;94.75
26978;BME280;56314;48.088;11.642;2022-12-01T01:15:39;95752.94;;;1.21;94.55
26978;BME280;56314;48.088;11.642;2022-12-01T01:18:05;95754.84;;;1.16;95.45
26978;BME280;56314;48.088;11.642;2022-12-01T01:20:31;95763.47;;;1.17;94.43
26978;BME280;56314;48.088;11.642;2022-12-01T01:22:57;95761.13;;;1.09;95.63
26978;BME280;56314;48.088;11.642;2022-12-01T01:25:23;95759.59;;;1.03;96.25
26978;BME280;56314;48.088;11.642;2022-12-01T01:27:48;95762.91;;;1.07;96.35
26978;BME280;56314;48.088;11.642;2022-12-01T01:30:14;95767.13;;;1.10;96.68
26978;BME280;56314;48.088;11.642;2022-12-01T01:32:40;95769.69;;;1.11;96.01
26978;BME280;56314;48.088;11.642;2022-12-01T01:35:06;95761.13;;;1.09;95.04
26978;BME280;56314;48.088;11.642;2022-12-01T01:37:31;95745.59;;;1.09;95.14
26978;BME280;56314;48.088;11.642;2022-12-01T01:39:56;95749.25;;;1.03;95.13
26978;BME280;56314;48.088;11.642;2022-12-01T01:42:22;95756.09;;;1.04;95.30
26978;BME280;56314;48.088;11.642;2022-12-01T01:44:57;95767.25;;;1.06;95.26
26978;BME280;56314;48.088;11.642;2022-12-01T01:47:33;95756.00;;;1.07;94.57
26978;BME280;56314;48.088;11.642;2022-12-01T01:50:03;95759.53;;;1.05;94.50
26978;BME280;56314;48.088;11.642;2022-12-01T01:52:35;95749.97;;;1.07;94.72
26978;BME280;56314;48.088;11.642;2022-12-01T01:55:02;95756.22;;;1.01;95.40
26978;BME280;56314;48.088;11.642;2022-12-01T01:57:31;95760.31;;;1.07;95.13
26978;BME280;56314;48.088;11.642;2022-12-01T02:00:02;95748.28;;;1.06;94.88
26978;BME280;56314;48.088;11.642;2022-12-01T02:02:28;95741.75;;;0.96;94.95
26978;BME280;56314;48.088;11.642;2022-12-01T02:05:00;95751.13;;;0.98;95.72
26978;BME280;56314;48.088;11.642;2022-12-01T02:07:26;95749.91;;;1.08;94.92
26978;BME280;56314;48.088;11.642;2022-12-01T02:09:53;95742.31;;;1.04;94.73
26978;BME280;56314;48.088;11.642;2022-12-01T02:12:29;95749.91;;;1.08;95.38
26978;BME280;56314;48.088;11.642;2022-12-01T02:17:34;95748.34;;;1.04;95.75
26978;BME280;56314;48.088;11.642;2022-12-01T02:22:46;95742.84;;;1.14;95.56
26978;BME280;56314;48.088;11.642;2022-12-01T02:34:34;95741.97;;;1.15;96.13
26978;BME280;56314;48.088;11.642;2022-12-01T02:37:05;95738.69;;;1.10;95.93
26978;BME280;56314;48.088;11.642;2022-12-01T02:39:37;95741.06;;;1.16;95.96
26978;BME280;56314;48.088;11.642;2022-12-01T02:48:32;95739.53;;;1.10;96.60
26978;BME280;56314;48.088;11.642;2022-12-01T02:51:03;95734.38;;;1.10;97.36
26978;BME280;56314;48.088;11.642;2022-12-01T02:53:30;95738.91;;;1.03;96.80
26978;BME280;56314;48.088;11.642;2022-12-01T02:55:57;95730.16;;;1.07;97.80
26978;BME280;56314;48.088;11.642;2022-12-01T02:58:23;95730.25;;;1.04;97.72
26978;BME280;56314;48.088;11.642;2022-12-01T03:03:58;95733.66;;;1.05;97.85
26978;BME280;56314;48.088;11.642;2022-12-01T03:09:46;95736.50;;;0.97;99.06
26978;BME280;56314;48.088;11.642;2022-12-01T03:18:14;95729.34;;;1.05;99.77
26978;BME280;56314;48.088;11.642;2022-12-01T03:20:51;95726.63;;;1.08;99.41
26978;BME280;56314;48.088;11.642;2022-12-01T03:23:24;95725.06;;;1.04;99.66
26978;BME280;56314;48.088;11.642;2022-12-01T03:25:53;95718.13;;;1.06;99.70
26978;BME280;56314;48.088;11.642;2022-12-01T03:28:23;95717.31;;;1.04;99.52
26978;BME280;56314;48.088;11.642;2022-12-01T03:30:54;95720.69;;;1.06;100.00
26978;BME280;56314;48.088;11.642;2022-12-01T03:33:35;95727.44;;;1.11;99.51
26978;BME280;56314;48.088;11.642;2022-12-01T03:36:10;95726.69;;;1.07;100.00
26978;BME280;56314;48.088;11.642;2022-12-01T03:38:41;95725.63;;;1.14;100.00
26978;BME280;56314;48.088;11.642;2022-12-01T03:41:14;95726.50;;;1.13;99.37
26978;BME280;56314;48.088;11.642;2022-12-01T03:43:45;95722.41;;;1.07;100.00
26978;BME280;56314;48.088;11.642;2022-12-01T03:46:21;95729.59;;;1.23;99.96
26978;BME280;56314;48.088;11.642;2022-12-01T03:48:49;95726.38;;;1.16;99.82
26978;BME280;56314;48.088;11.642;2022-12-01T03:57:11;95731.53;;;1.18;100.00
26978;BME280;56314;48.088;11.642;2022-12-01T03:59:39;95735.03;;;1.15;99.84
26978;BME280;56314;48.088;11.642;2022-12-01T04:02:07;95734.38;;;1.10;100.00
26978;BME280;56314;48.088;11.642;2022-12-01T04:04:32;95733.41;;;1.13;100.00
26978;BME280;56314;48.088;11.642;2022-12-01T04:06:58;95732.75;;;1.07;100.00
26978;BME280;56314;48.088;11.642;2022-12-01T04:09:23;95736.38;;;1.02;100.00
26978;BME280;56314;48.088;11.642;2022-12-01T04:11:48;95734.03;;;1.19;100.00
26978;BME280;56314;48.088;11.642;2022-12-01T04:14:32;95734.94;;;1.18;100.00
26978;BME280;56314;48.088;11.642;2022-12-01T04:16:58;95734.91;;;1.20;100.00
26978;BME280;56314;48.088;11.642;2022-12-01T04:19:23;95733.16;;;1.20;99.29
26978;BME280;56314;48.088;11.642;2022-12-01T04:21:48;95729.81;;;1.17;99.29
26978;BME280;56314;48.088;11.642;2022-12-01T04:24:14;95724.69;;;1.15;100.00
26978;BME280;56314;48.088;11.642;2022-12-01T04:26:39;95739.16;;;1.21;100.00
26978;BME280;56314;48.088;11.642;2022-12-01T04:29:08;95733.69;;;1.30;99.00
26978;BME280;56314;48.088;11.642;2022-12-01T04:31:34;95732.97;;;1.25;99.42
26978;BME280;56314;48.088;11.642;2022-12-01T04:33:59;95731.25;;;1.26;99.38
26978;BME280;56314;48.088;11.642;2022-12-01T04:36:28;95738.72;;;1.33;99.75
26978;BME280;56314;48.088;11.642;2022-12-01T04:38:53;95736.19;;;1.32;99.31
26978;BME280;56314;48.088;11.642;2022-12-01T04:41:19;95724.22;;;1.29;99.33
26978;BME280;56314;48.088;11.642;2022-12-01T04:43:44;95731.38;;;1.21;99.92
26978;BME280;56314;48.088;11.642;2022-12-01T04:46:10;95733.78;;;1.27;100.00
26978;BME280;56314;48.088;11.642;2022-12-01T04:48:37;95727.81;;;1.25;99.21
26978;BME280;56314;48.088;11.642;2022-12-01T04:51:04;95727.97;;;1.20;99.88
26978;BME280;56314;48.088;11.642;2022-12-01T04:53:30;95731.19;;;1.27;99.58
26978;BME280;56314;48.088;11.642;2022-12-01T04:55:55;95727.72;;;1.28;98.98
26978;BME280;56314;48.088;11.642;2022-12-01T04:58:21;95728.50;;;1.30;98.82
26978;BME280;56314;48.088;11.642;2022-12-01T05:00:46;95732.72;;;1.33;99.07
26978;BME280;56314;48.088;11.642;2022-12-01T05:03:12;95727.59;;;1.31;98.33
26978;BME280;56314;48.088;11.642;2022-12-01T05:05:37;95729.31;;;1.32;98.28
26978;BME280;56314;48.088;11.642;2022-12-01T05:08:02;95732.72;;;1.33;97.90
26978;BME280;56314;48.088;11.642;2022-12-01T05:10:28;95734.34;;;1.35;97.35
26978;BME280;56314;48.088;11.642;2022-12-01T05:12:53;95741.44;;;1.30;98.30
26978;BME280;56314;48.088;11.642;2022-12-01T05:15:19;95744.66;;;1.37;97.65
26978;BME280;56314;48.088;11.642;2022-12-01T05:17:45;95737.72;;;1.37;97.75
26978;BME280;56314;48.088;11.642;2022-12-01T05:20:17;95747.28;;;1.35;97.70
26978;BME280;56314;48.088;11.642;2022-12-01T05:23:02;95732.56;;;1.37;97.64
26978;BME280;56314;48.088;11.642;2022-12-01T05:25:27;95738.53;;;1.40;98.05
26978;BME280;56314;48.088;11.642;2022-12-01T05:27:53;95737.72;;;1.37;98.09
26978;BME280;56314;48.088;11.642;2022-12-01T05:30:18;95741.94;;;1.40;97.69
26978;BME280;56314;48.088;11.642;2022-12-01T05:32:44;95741.22;;;1.36;97.58
26978;BME280;56314;48.088;11.642;2022-12-01T05:35:09;95734.25;;;1.38;96.34
26978;BME280;56314;48.088;11.642;2022-12-01T05:37:34;95742.09;;;1.35;97.15
26978;BME280;56314;48.088;11.642;2022-12-01T05:40:00;95744.59;;;1.38;97.39
26978;BME280;56314;48.088;11.642;2022-12-01T05:42:25;95746.34;;;1.38;97.68
26978;BME280;56314;48.088;11.642;2022-12-01T05:44:51;95738.63;;;1.36;97.58
26978;BME280;56314;48.088;11.642;2022-12-01T05:47:16;95733.28;;;1.41;98.08
26978;BME280;56314;48.088;11.642;2022-12-01T05:49:41;95734.94;;;1.44;97.04
26978;BME280;56314;48.088;11.642;2022-12-01T05:52:07;95733.19;;;1.44;97.07
26978;BME280;56314;48.088;11.642;2022-12-01T05:54:32;95743.38;;;1.49;96.93
26978;BME280;56314;48.088;11.642;2022-12-01T05:56:57;95746.91;;;1.46;96.87
26978;BME280;56314;48.088;11.642;2022-12-01T05:59:23;95746.81;;;1.49;97.26
26978;BME280;56314;48.088;11.642;2022-12-01T06:01:48;95748.53;;;1.49;96.53
26978;BME280;56314;48.088;11.642;2022-12-01T06:04:14;95741.66;;;1.48;96.94
26978;BME280;56314;48.088;11.642;2022-12-01T06:06:39;95745.25;;;1.69;96.44
26978;BME280;56314;48.088;11.642;2022-12-01T06:09:04;95735.69;;;1.71;95.85
26978;BME280;56314;48.088;11.642;2022-12-01T06:11:30;95748.91;;;1.63;96.42
26978;BME280;56314;48.088;11.642;2022-12-01T06:13:55;95748.72;;;1.68;95.78
26978;BME280;56314;48.088;11.642;2022-12-01T06:16:20;95751.38;;;1.66;96.05
26978;BME280;56314;48.088;11.642;2022-12-01T06:18:45;95743.47;;;1.69;95.83
26978;BME280;56314;48.088;11.642;2022-12-01T06:21:11;95754.69;;;1.70;96.24
26978;BME280;56314;48.088;11.642;2022-12-01T06:23:37;95744.56;;;1.64;96.05
26978;BME280;56314;48.088;11.642;2022-12-01T06:26:02;95752.47;;;1.59;96.63
26978;BME280;56314;48.088;11.642;2022-12-01T06:28:28;95754.72;;;1.68;96.77
26978;BME280;56314;48.088;11.642;2022-12-01T06:30:53;95757.47;;;1.65;96.47
26978;BME280;56314;48.088;11.642;2022-12-01T06:33:18;95755.03;;;1.61;96.62
26978;BME280;56314;48.088;11.642;2022-12-01T06:35:44;95757.56;;;1.62;96.42
26978;BME280;56314;48.088;11.642;2022-12-01T06:38:09;95759.34;;;1.60;95.82
26978;BME280;56314;48.088;11.642;2022-12-01T06:40:34;95761.28;;;1.55;96.25
26978;BME280;56314;48.088;11.642;2022-12-01T06:43:00;95766.16;;;1.63;97.18
26978;BME280;56314;48.088;11.642;2022-12-01T06:45:27;95764.00;;;1.76;95.97
26978;BME280;56314;48.088;11.642;2022-12-01T06:47:53;95769.69;;;1.62;94.95
26978;BME280;56314;48.088;11.642;2022-12-01T06:50:19;95766.38;;;1.57;95.86
26978;BME280;56314;48.088;11.642;2022-12-01T06:52:44;95767.34;;;1.54;96.78
26978;BME280;56314;48.088;11.642;2022-12-01T06:55:10;95761.94;;;1.60;95.70
26978;BME280;56314;48.088;11.642;2022-12-01T06:57:35;95772.19;;;1.63;95.11
26978;BME280;56314;48.088;11.642;2022-12-01T07:00:00;95770.56;;;1.61;95.44
26978;BME280;56314;48.088;11.642;2022-12-01T07:02:26;95767.97;;;1.61;95.36
26978;BME280;56314;48.088;11.642;2022-12-01T07:04:51;95773.88;;;1.64;94.31
26978;BME280;56314;48.088;11.642;2022-12-01T07:07:16;95772.75;;;1.72;94.20
26978;BME280;56314;48.088;11.642;2022-12-01T07:09:42;95766.84;;;1.68;93.60
26978;BME280;56314;48.088;11.642;2022-12-01T07:12:07;95767.81;;;1.65;94.24
26978;BME280;56314;48.088;11.642;2022-12-01T07:14:32;95773.72;;;1.69;94.51
26978;BME280;56314;48.088;11.642;2022-12-01T07:16:58;95767.47;;;1.75;93.94
26978;BME280;56314;48.088;11.642;2022-12-01T07:19:23;95768.19;;;1.78;94.52
26978;BME280;56314;48.088;11.642;2022-12-01T07:21:49;95769.53;;;1.89;94.27
26978;BME280;56314;48.088;11.642;2022-12-01T07:24:15;95768.75;;;1.87;93.44
26978;BME280;56314;48.088;11.642;2022-12-01T07:26:41;95761.91;;;1.86;93.24
26978;BME280;56314;48.088;11.642;2022-12-01T07:29:07;95773.09;;;1.86;92.51
26978;BME280;56314;48.088;11.642;2022-12-01T07:31:33;95774.00;;;1.85;91.26
26978;BME280;56314;48.088;11.642;2022-12-01T07:33:58;95780.97;;;1.83;91.72
26978;BME280;56314;48.088;11.642;2022-12-01T07:36:24;95782.63;;;1.86;91.25
26978;BME280;56314;48.088;11.642;2022-12-01T07:38:49;95787.03;;;1.83;91.79
26978;BME280;56314;48.088;11.642;2022-12-01T07:41:16;95781.94;;;1.80;91.84
26978;BME280;56314;48.088;11.642;2022-12-01T07:43:45;95788.13;;;1.76;92.22
26978;BME280;56314;48.088;11.642;2022-12-01T07:46:17;95782.75;;;1.82;93.17
26978;BME280;56314;48.088;11.642;2022-12-01T07:48:43;95786.88;;;1.87;93.70
26978;BME280;56314;48.088;11.642;2022-12-01T07:51:11;95790.22;;;1.90;91.77
26978;BME280;56314;48.088;11.642;2022-12-01T07:53:38;95791.84;;;1.93;91.81
26978;BME280;56314;48.088;11.642;2022-12-01T07:56:04;95796.34;;;1.88;91.53
26978;BME280;56314;48.088;11.642;2022-12-01T07:58:30;95790.50;;;1.82;91.71
26978;BME280;56314;48.088;11.642;2022-12-01T08:00:56;95799.00;;;1.86;91.74
26978;BME280;56314;48.088;11.642;2022-12-01T08:03:21;95802.56;;;1.83;91.73
26978;BME280;56314;48.088;11.642;2022-12-01T08:05:57;95796.47;;;1.84;91.64
26978;BME280;56314;48.088;11.642;2022-12-01T08:08:23;95798.16;;;1.86;91.10
26978;BME280;56314;48.088;11.642;2022-12-01T08:10:49;95795.41;;;1.90;90.93
26978;BME280;56314;48.088;11.642;2022-12-01T08:13:15;95792.75;;;1.92;91.05
26978;BME280;56314;48.088;11.642;2022-12-01T08:15:40;95794.28;;;1.97;90.39
26978;BME280;56314;48.088;11.642;2022-12-01T08:18:06;95793.47;;;1.95;90.50
26978;BME280;56314;48.088;11.642;2022-12-01T08:20:31;95799.38;;;1.99;91.01
26978;BME280;56314;48.088;11.642;2022-12-01T08:22:59;95797.75;;;1.96;90.52
26978;BME280;56314;48.088;11.642;2022-12-01T08:25:25;95795.59;;;2.09;90.81
26978;BME280;56314;48.088;11.642;2022-12-01T08:27:51;95790.25;;;2.12;90.55
26978;BME280;56314;48.088;11.642;2022-12-01T08:30:16;95789.16;;;2.20;91.33
26978;BME280;56314;48.088;11.642;2022-12-01T08:32:41;95788.44;;;2.16;91.01
26978;BME280;56314;48.088;11.642;2022-12-01T08:35:07;95792.63;;;2.19;90.33
26978;BME280;56314;48.088;11.642;2022-12-01T08:37:32;95793.19;;;2.27;90.07
26978;BME280;56314;48.088;11.642;2022-12-01T08:39:58;95798.53;;;2.22;89.93
26978;BME280;56314;48.088;11.642;2022-12-01T08:42:23;95793.91;;;2.30;88.85
26978;BME280;56314;48.088;11.642;2022-12-01T08:44:48;95793.06;;;2.30;89.69
26978;BME280;56314;48.088;11.642;2022-12-01T08:47:14;95800.16;;;2.25;89.11
26978;BME280;56314;48.088;11.642;2022-12-01T08:49:39;95794.97;;;2.25;89.61
26978;BME280;56314;48.088;11.642;2022-12-01T08:52:04;95799.94;;;2.31;89.51
26978;BME280;56314;48.088;11.642;2022-12-01T08:54:30;95791.00;;;2.40;88.04
26978;BME280;56314;48.088;11.642;2022-12-01T08:56:56;95801.41;;;2.38;87.32
26978;BME280;56314;48.088;11.642;2022-12-01T08:59:21;95798.38;;;2.27;88.29
26978;BME280;56314;48.088;11.642;2022-12-01T09:01:46;95802.75;;;2.25;89.68
26978;BME280;56314;48.088;11.642;2022-12-01T09:04:19;95806.25;;;2.24;89.73
26978;BME280;56314;48.088;11.642;2022-12-01T09:06:46;95796.63;;;2.27;88.66
26978;BME280;56314;48.088;11.642;2022-12-01T09:09:18;95805.13;;;2.31;88.08
26978;BME280;56314;48.088;11.642;2022-12-01T09:11:44;95799.09;;;2.30;87.33
26978;BME280;56314;48.088;11.642;2022-12-01T09:14:11;95805.94;;;2.33;86.99
26978;BME280;56314;48.088;11.642;2022-12-01T09:16:37;95805.25;;;2.28;86.55
26978;BME280;56314;48.088;11.642;2022-12-01T09:19:03;95798.19;;;2.31;86.17
26978;BME280;56314;48.088;11.642;2022-12-01T09:21:30;95800.91;;;2.28;85.72
26978;BME280;56314;48.088;11.642;2022-12-01T09:23:56;95804.06;;;2.37;85.47
26978;BME280;56314;48.088;11.642;2022-12-01T09:26:22;95806.66;;;2.37;84.65
26978;BME280;56314;48.088;11.642;2022-12-01T09:28:51;95805.38;;;2.47;84.18
26978;BME280;56314;48.088;11.642;2022-12-01T09:31:17;95806.81;;;2.54;83.55
26978;BME280;56314;48.088;11.642;2022-12-01T09:33:43;95802.53;;;2.53;84.32
26978;BME280;56314;48.088;11.642;2022-12-01T09:36:09;95799.63;;;2.63;85.18
26978;BME280;56314;48.088;11.642;2022-12-01T09:38:35;95803.66;;;2.70;85.00
26978;BME280;56314;48.088;11.642;2022-12-01T09:41:15;95798.22;;;2.76;83.38
26978;BME280;56314;48.088;11.642;2022-12-01T09:46:28;95798.88;;;2.81;82.97
26978;BME280;56314;48.088;11.642;2022-12-01T09:48:56;95792.88;;;3.01;82.49
26978;BME280;56314;48.088;11.642;2022-12-01T09:51:24;95793.22;;;3.14;82.27
26978;BME280;56314;48.088;11.642;2022-12-01T09:53:56;95785.91;;;3.24;80.56
26978;BME280;56314;48.088;11.642;2022-12-01T09:56:24;95777.88;;;3.30;77.81
26978;BME280;56314;48.088;11.642;2022-12-01T09:58:56;95775.78;;;3.18;79.45
26978;BME280;56314;48.088;11.642;2022-12-01T10:01:42;95766.13;;;3.21;78.89
26978;BME280;56314;48.088;11.642;2022-12-01T10:04:41;95772.84;;;3.26;79.48
26978;BME280;56314;48.088;11.642;2022-12-01T10:07:23;95767.81;;;3.22;80.04
26978;BME280;56314;48.088;11.642;2022-12-01T10:09:56;95762.47;;;3.26;78.52
26978;BME280;56314;48.088;11.642;2022-12-01T10:12:23;95769.75;;;3.17;78.56
26978;BME280;56314;48.088;11.642;2022-12-01T10:14:55;95767.03;;;3.20;79.08
26978;BME280;56314;48.088;11.642;2022-12-01T10:17:31;95764.31;;;3.23;78.41
26978;BME280;56314;48.088;11.642;2022-12-01T10:20:14;95762.66;;;3.21;78.87
26978;BME280;56314;48.088;11.642;2022-12-01T10:23:11;95758.13;;;3.26;78.60
26978;BME280;56314;48.088;11.642;2022-12-01T10:26:06;95757.53;;;3.40;78.05
26978;BME280;56314;48.088;11.642;2022-12-01T10:34:35;95751.50;;;3.39;76.97
26978;BME280;56314;48.088;11.642;2022-12-01T10:37:02;95737.41;;;3.45;76.73
26978;BME280;56314;48.088;11.642;2022-12-01T10:39:35;95741.22;;;3.57;77.01
26978;BME280;56314;48.088;11.642;2022-12-01T10:42:18;95736.94;;;3.56;76.23
26978;BME280;56314;48.088;11.642;2022-12-01T10:44:46;95740.53;;;3.53;76.18
26978;BME280;56314;48.088;11.642;2022-12-01T10:47:23;95732.81;;;3.52;76.80
26978;BME280;56314;48.088;11.642;2022-12-01T10:49:50;95735.69;;;3.65;76.94
26978;BME280;56314;48.088;11.642;2022-12-01T10:52:34;95730.63;;;3.62;76.63
26978;BME280;56314;48.088;11.642;2022-12-01T10:55:00;95731.63;;;3.59;77.61
26978;BME280;56314;48.088;11.642;2022-12-01T10:57:28;95731.16;;;3.49;77.03
26978;BME280;56314;48.088;11.642;2022-12-01T11:00:04;95733.97;;;3.45;76.62
26978;BME280;56314;48.088;11.642;2022-12-01T11:02:30;95729.75;;;3.42;75.92
26978;BME280;56314;48.088;11.642;2022-12-01T11:04:59;95725.97;;;3.30;77.03
26978;BME280;56314;48.088;11.642;2022-12-01T11:12:24;95725.09;;;3.30;78.13
26978;BME280;56314;48.088;11.642;2022-12-01T11:14:51;95721.31;;;3.37;77.40
26978;BME280;56314;48.088;11.642;2022-12-01T11:17:31;95726.66;;;3.34;77.11
26978;BME280;56314;48.088;11.642;2022-12-01T11:19:57;95719.91;;;3.30;77.95
26978;BME280;56314;48.088;11.642;2022-12-01T11:22:33;95721.31;;;3.37;78.45
26978;BME280;56314;48.088;11.642;2022-12-01T11:25:01;95720.22;;;3.43;78.85
26978;BME280;56314;48.088;11.642;2022-12-01T11:27:51;95726.84;;;3.50;77.31
26978;BME280;56314;48.088;11.642;2022-12-01T11:30:26;95724.56;;;3.42;78.59
26978;BME280;56314;48.088;11.642;2022-12-01T11:33:01;95713.19;;;3.45;77.43
26978;BME280;56314;48.088;11.642;2022-12-01T11:35:33;95715.28;;;3.36;78.89
26978;BME280;56314;48.088;11.642;2022-12-01T11:38:01;95720.69;;;3.32;78.25
26978;BME280;56314;48.088;11.642;2022-12-01T11:40:51;95713.03;;;3.29;78.84
26978;BME280;56314;48.088;11.642;2022-12-01T11:45:50;95712.31;;;3.25;78.99
26978;BME280;56314;48.088;11.642;2022-12-01T11:51:04;95708.94;;;3.23;79.52
26978;BME280;56314;48.088;11.642;2022-12-01T11:53:41;95717.84;;;3.17;79.11
26978;BME280;56314;48.088;11.642;2022-12-01T11:56:29;95708.94;;;3.23;79.50
26978;BME280;56314;48.088;11.642;2022-12-01T11:59:03;95714.13;;;3.23;79.42
26978;BME280;56314;48.088;11.642;2022-12-01T12:09:35;95707.06;;;3.27;79.25
26978;BME280;56314;48.088;11.642;2022-12-01T12:12:27;95705.94;;;3.32;78.93
26978;BME280;56314;48.088;11.642;2022-12-01T12:15:17;95704.63;;;3.23;79.15
26978;BME280;56314;48.088;11.642;2022-12-01T12:18:17;95709.41;;;3.12;79.87
26978;BME280;56314;48.088;11.642;2022-12-01T12:35:15;95695.47;;;3.15;80.33
26978;BME280;56314;48.088;11.642;2022-12-01T12:38:00;95693.44;;;3.21;79.89
26978;BME280;56314;48.088;11.642;2022-12-01T12:43:27;95695.47;;;3.15;79.91
26978;BME280;56314;48.088;11.642;2022-12-01T12:54:17;95701.06;;;3.05;81.25
26978;BME280;56314;48.088;11.642;2022-12-01T12:56:50;95697.34;;;3.11;80.69
26978;BME280;56314;48.088;11.642;2022-12-01T12:59:21;95695.88;;;3.05;81.34
26978;BME280;56314;48.088;11.642;2022-12-01T13:02:00;95697.41;;;3.10;80.80
26978;BME280;56314;48.088;11.642;2022-12-01T13:04:41;95695.97;;;3.02;81.03
26978;BME280;56314;48.088;11.642;2022-12-01T13:07:21;95700.28;;;3.03;81.07
26978;BME280;56314;48.088;11.642;2022-12-01T13:09:53;95699.22;;;3.07;81.64
26978;BME280;56314;48.088;11.642;2022-12-01T13:12:37;95699.28;;;3.06;80.41
26978;BME280;56314;48.088;11.642;2022-12-01T13:15:18;95703.56;;;3.07;81.11
26978;BME280;56314;48.088;11.642;2022-12-01T13:17:55;95699.88;;;3.13;81.16
26978;BME280;56314;48.088;11.642;2022-12-01T13:20:25;95705.50;;;3.02;81.15
26978;BME280;56314;48.088;11.642;2022-12-01T13:22:52;95705.97;;;3.12;80.03
26978;BME280;56314;48.088;11.642;2022-12-01T13:25:36;95700.91;;;3.08;80.45
26978;BME280;56314;48.088;11.642;2022-12-01T13:28:06;95701.38;;;2.98;80.58
26978;BME280;56314;48.088;11.642;2022-12-01T13:30:37;95699.47;;;3.01;81.13
26978;BME280;56314;48.088;11.642;2022-12-01T13:33:05;95701.28;;;2.99;80.82
26978;BME280;56314;48.088;11.642;2022-12-01T13:35:33;95698.13;;;2.92;81.26
26978;BME280;56314;48.088;11.642;2022-12-01T13:40:37;95692.69;;;2.99;80.70
26978;BME280;56314;48.088;11.642;2022-12-01T13:43:17;95684.38;;;2.90;81.54
26978;BME280;56314;48.088;11.642;2022-12-01T13:45:44;95692.88;;;2.94;82.13
26978;BME280;56314;48.088;11.642;2022-12-01T13:48:50;95691.38;;;2.88;81.71
26978;BME280;56314;48.088;11.642;2022-12-01T13:51:14;95695.53;;;2.92;80.79
26978;BME280;56314;48.088;11.642;2022-12-01T13:58:47;95692.53;;;2.81;81.54
26978;BME280;56314;48.088;11.642;2022-12-01T14:03:55;95692.81;;;2.75;81.51
26978;BME280;56314;48.088;11.642;2022-12-01T14:06:25;95692.25;;;2.67;82.33
26978;BME280;56314;48.088;11.642;2022-12-01T14:08:59;95695.75;;;2.66;81.51
26978;BME280;56314;48.088;11.642;2022-12-01T14:11:28;95698.53;;;2.61;81.71
26978;BME280;56314;48.088;11.642;2022-12-01T14:14:08;95688.31;;;2.58;82.32
26978;BME280;56314;48.088;11.642;2022-12-01T14:16:55;95692.44;;;2.62;82.23
26978;BME280;56314;48.088;11.642;2022-12-01T14:22:00;95693.31;;;2.63;82.10
26978;BME280;56314;48.088;11.642;2022-12-01T14:24:32;95693.50;;;2.58;82.93
26978;BME280;56314;48.088;11.642;2022-12-01T14:26:58;95698.00;;;2.53;83.35
26978;BME280;56314;48.088;11.642;2022-12-01T14:29:44;95693.44;;;2.59;83.23
26978;BME280;56314;48.088;11.642;2022-12-01T14:34:41;95701.19;;;2.59;84.48
26978;BME280;56314;48.088;11.642;2022-12-01T14:37:18;95702.09;;;2.58;84.12
26978;BME280;56314;48.088;11.642;2022-12-01T14:39:51;95704.63;;;2.60;83.92
26978;BME280;56314;48.088;11.642;2022-12-01T14:45:13;95707.47;;;2.54;84.29
26978;BME280;56314;48.088;11.642;2022-12-01T14:48:13;95705.25;;;2.44;85.07
26978;BME280;56314;48.088;11.642;2022-12-01T14:50:49;95707.56;;;2.52;84.98
26978;BME280;56314;48.088;11.642;2022-12-01T14:55:51;95703.19;;;2.53;84.86
26978;BME280;56314;48.088;11.642;2022-12-01T14:58:22;95708.28;;;2.56;84.83
26978;BME280;56314;48.088;11.642;2022-12-01T15:00:56;95716.25;;;2.51;84.59
26978;BME280;56314;48.088;11.642;2022-12-01T15:03:22;95710.63;;;2.40;84.41
26978;BME280;56314;48.088;11.642;2022-12-01T15:05:48;95705.50;;;2.38;84.76